Hillman, Ohio
Current Conditions -  °F | °C
As of 3:55 PM on Thursday 20 Nov 2014 (Local Time) from KFGX Reporting Station
Clear Clear  
Wind Chill: -5°   Ceiling: Unl
Heat Index:   Visibility: 10mi
Dew Point: -9°   Wind: 13mph
Humidity: 50%   Direction: 250°WSW
Pressure: 30.15"   Gusts: 16mph
Location:  38.8698°N, 83.9081°W
Report Text: KFGX 202055Z AUTO 25011G14KT 10SM CLR 00/M09 A3015 RMK AO2 T00001093
Loading
Personal Weather Stations






























Interactive Weather Map New forecast layout! Learn more

10-Day Weather Forecast

Advertisements
Track Severe Weather on mobile